Time;durP1;ratioP1;P1;durP2;ratioP2;P2;SDS_P1;SDS_P2;PMS_P1;PMS_P2;Temp;Humidity;BMP_temperature;BMP_pressure;BME280_temperature;BME280_humidity;BME280_pressure;Samples;Min_cycle;Max_cycle;Signal;HPM_P1;HPM_P2
2021/06/07 00:01:14;;;;;;;37.50;23.93;;;14.90;99.90;;;;;;476788;249;28605;-70
2021/06/07 00:03:15;;;;;;;40.73;24.80;;;14.80;99.90;;;;;;476794;249;28591;-72
2021/06/07 00:05:16;;;;;;;39.60;25.10;;;14.90;99.90;;;;;;476794;245;28629;-74
2021/06/07 00:07:18;;;;;;;43.00;24.70;;;14.90;99.90;;;;;;476782;249;28473;-70
2021/06/07 00:09:19;;;;;;;39.60;24.47;;;14.90;99.90;;;;;;476790;249;28521;-71
2021/06/07 00:11:21;;;;;;;39.77;25.07;;;14.90;99.90;;;;;;476773;249;29503;-70
2021/06/07 00:13:24;;;;;;;44.20;26.60;;;14.90;99.90;;;;;;476773;249;29341;-72
2021/06/07 00:15:23;;;;;;;40.40;25.73;;;14.80;99.90;;;;;;476639;249;28942;-71
2021/06/07 00:17:24;;;;;;;38.90;24.40;;;14.80;99.90;;;;;;476777;249;28925;-71
2021/06/07 00:19:25;;;;;;;46.10;27.90;;;14.80;99.90;;;;;;476796;249;28944;-71
2021/06/07 00:21:27;;;;;;;47.10;29.77;;;14.80;99.90;;;;;;476766;249;28350;-71
2021/06/07 00:23:28;;;;;;;40.57;25.47;;;14.80;99.90;;;;;;476789;249;28507;-71
2021/06/07 00:25:29;;;;;;;42.17;25.13;;;14.80;99.90;;;;;;476794;249;29396;-72
2021/06/07 00:27:30;;;;;;;40.00;24.87;;;14.80;99.90;;;;;;476776;249;29407;-70
2021/06/07 00:29:32;;;;;;;42.23;26.03;;;14.80;99.90;;;;;;476782;249;28634;-71
2021/06/07 00:31:33;;;;;;;41.33;25.70;;;14.70;99.90;;;;;;476768;249;28362;-71
2021/06/07 00:33:34;;;;;;;45.07;28.63;;;14.70;99.90;;;;;;476773;249;28591;-71
2021/06/07 00:35:35;;;;;;;42.10;25.63;;;14.70;99.90;;;;;;476810;249;28520;-73
2021/06/07 00:37:37;;;;;;;39.57;24.97;;;14.70;99.90;;;;;;476782;249;28486;-70
2021/06/07 00:39:38;;;;;;;41.67;26.70;;;14.70;99.90;;;;;;476787;249;29116;-70
2021/06/07 00:41:39;;;;;;;40.17;24.43;;;14.80;99.90;;;;;;476792;249;29054;-70
2021/06/07 00:43:40;;;;;;;41.63;26.60;;;14.80;99.90;;;;;;476766;249;28627;-71
2021/06/07 00:45:42;;;;;;;42.40;25.43;;;14.70;99.90;;;;;;476804;249;28642;-71
2021/06/07 00:47:43;;;;;;;43.97;27.60;;;14.70;99.90;;;;;;476808;249;28922;-70
2021/06/07 00:49:44;;;;;;;43.67;28.10;;;14.70;99.90;;;;;;476804;249;28610;-71
2021/06/07 00:51:45;;;;;;;41.83;26.10;;;14.70;99.90;;;;;;476790;249;28912;-71
2021/06/07 00:53:47;;;;;;;47.80;27.70;;;14.70;99.90;;;;;;476804;249;29519;-72
2021/06/07 00:55:49;;;;;;;46.50;28.03;;;14.70;99.90;;;;;;476831;249;28911;-72
2021/06/07 00:57:49;;;;;;;39.77;26.07;;;14.70;99.90;;;;;;476792;249;28927;-71
2021/06/07 00:59:50;;;;;;;49.80;29.43;;;14.70;99.90;;;;;;476818;249;28526;-71
2021/06/07 01:01:52;;;;;;;43.53;27.47;;;14.60;99.90;;;;;;476491;247;28734;-70
2021/06/07 01:03:53;;;;;;;45.53;28.40;;;14.60;99.90;;;;;;476543;249;28639;-71
2021/06/07 01:05:54;;;;;;;41.87;26.57;;;14.60;99.90;;;;;;476675;249;28662;-72
2021/06/07 01:07:55;;;;;;;40.07;25.20;;;14.70;99.90;;;;;;476726;249;29123;-71
2021/06/07 01:09:57;;;;;;;39.47;25.87;;;14.70;99.90;;;;;;476788;249;29510;-71
2021/06/07 01:11:58;;;;;;;39.17;25.30;;;14.70;99.90;;;;;;476784;249;28463;-71
2021/06/07 01:13:59;;;;;;;42.90;26.50;;;14.70;99.90;;;;;;476536;249;28966;-71
2021/06/07 01:16:01;;;;;;;41.37;25.53;;;14.70;99.90;;;;;;476802;249;28456;-72
2021/06/07 01:18:02;;;;;;;42.23;26.77;;;14.60;99.90;;;;;;476801;249;28560;-71
2021/06/07 01:20:03;;;;;;;48.37;29.63;;;14.60;99.90;;;;;;476746;249;28548;-72
2021/06/07 01:22:04;;;;;;;37.97;24.43;;;14.60;99.90;;;;;;476748;249;29318;-70
2021/06/07 01:24:06;;;;;;;53.77;30.87;;;14.60;99.90;;;;;;476793;249;29436;-71
2021/06/07 01:26:07;;;;;;;40.03;26.57;;;14.60;99.90;;;;;;476835;249;28943;-72
2021/06/07 01:28:08;;;;;;;40.73;25.30;;;14.60;99.90;;;;;;476795;249;28505;-71
2021/06/07 01:30:09;;;;;;;42.50;27.43;;;14.60;99.90;;;;;;476829;249;28582;-71
2021/06/07 01:32:11;;;;;;;38.77;25.70;;;14.60;99.90;;;;;;476802;249;28434;-70
2021/06/07 01:34:12;;;;;;;39.23;24.40;;;14.60;99.90;;;;;;476772;249;28557;-71
2021/06/07 01:36:13;;;;;;;39.60;27.07;;;14.60;99.90;;;;;;476792;249;29511;-71
2021/06/07 01:38:14;;;;;;;40.07;26.57;;;14.70;99.90;;;;;;476804;249;29349;-70
2021/06/07 01:40:16;;;;;;;40.60;25.00;;;14.70;99.90;;;;;;476811;249;28534;-70
2021/06/07 01:42:17;;;;;;;48.00;29.73;;;14.60;99.90;;;;;;476845;249;28456;-70
2021/06/07 01:44:18;;;;;;;46.30;28.30;;;14.70;99.90;;;;;;476782;249;28950;-70
2021/06/07 01:46:19;;;;;;;42.80;27.70;;;14.60;99.90;;;;;;476816;249;28923;-71
2021/06/07 01:48:21;;;;;;;44.10;27.90;;;14.70;99.90;;;;;;476809;249;28959;-71
2021/06/07 01:50:22;;;;;;;43.07;27.00;;;14.60;99.90;;;;;;476809;249;29066;-71
2021/06/07 01:52:23;;;;;;;47.17;27.60;;;14.60;99.90;;;;;;476818;249;29351;-70
2021/06/07 01:54:24;;;;;;;38.53;24.73;;;14.60;99.90;;;;;;476813;249;28941;-70
2021/06/07 01:56:26;;;;;;;46.80;29.30;;;14.60;99.90;;;;;;476798;249;28637;-72
2021/06/07 01:58:27;;;;;;;55.13;32.17;;;14.60;99.90;;;;;;476816;249;28465;-71
2021/06/07 02:00:28;;;;;;;37.83;24.70;;;14.60;99.90;;;;;;476806;249;28942;-71
2021/06/07 02:02:29;;;;;;;39.30;24.90;;;14.60;99.90;;;;;;476836;249;28712;-70
2021/06/07 02:04:31;;;;;;;52.07;28.63;;;14.60;99.90;;;;;;476796;249;29495;-71
2021/06/07 02:06:32;;;;;;;53.73;33.23;;;14.60;99.90;;;;;;476849;249;29486;-72
2021/06/07 02:08:33;;;;;;;44.37;28.23;;;14.60;99.90;;;;;;476831;249;28496;-71
2021/06/07 02:10:34;;;;;;;45.10;27.90;;;14.60;99.90;;;;;;476843;249;28681;-71
2021/06/07 02:12:36;;;;;;;49.13;30.43;;;14.60;99.90;;;;;;476843;249;28571;-70
2021/06/07 02:14:37;;;;;;;40.43;26.03;;;14.60;99.90;;;;;;476826;249;28734;-70
2021/06/07 02:16:38;;;;;;;58.77;33.00;;;14.60;99.90;;;;;;476803;249;28944;-71
2021/06/07 02:18:40;;;;;;;49.70;31.47;;;14.50;99.90;;;;;;476812;249;28697;-70
2021/06/07 02:20:41;;;;;;;39.90;25.57;;;14.50;99.90;;;;;;476804;249;29114;-71
2021/06/07 02:22:42;;;;;;;56.83;33.00;;;14.60;99.90;;;;;;476837;245;29081;-70
2021/06/07 02:24:43;;;;;;;68.70;36.40;;;14.50;99.90;;;;;;476789;249;28937;-71
2021/06/07 02:26:45;;;;;;;59.23;35.07;;;14.40;99.90;;;;;;476785;249;28913;-71
2021/06/07 02:28:46;;;;;;;60.73;36.63;;;14.50;99.90;;;;;;476817;249;28696;-71
2021/06/07 02:30:47;;;;;;;60.47;33.83;;;14.40;99.90;;;;;;476807;249;28542;-72
2021/06/07 02:32:48;;;;;;;54.73;31.60;;;14.40;99.90;;;;;;476793;249;28895;-70
2021/06/07 02:34:50;;;;;;;50.87;30.83;;;14.50;99.90;;;;;;476773;249;29104;-70
2021/06/07 02:36:51;;;;;;;51.57;31.57;;;14.50;99.90;;;;;;476806;249;28880;-71
2021/06/07 02:38:52;;;;;;;72.37;37.43;;;14.50;99.90;;;;;;476829;249;28460;-70
2021/06/07 02:40:53;;;;;;;49.50;29.97;;;14.40;99.90;;;;;;476804;249;28517;-70
2021/06/07 02:42:55;;;;;;;59.63;35.40;;;14.50;99.90;;;;;;476799;245;28687;-70
2021/06/07 02:44:56;;;;;;;66.53;35.70;;;14.50;99.90;;;;;;476798;249;28728;-70
2021/06/07 02:46:57;;;;;;;54.50;31.57;;;14.50;99.90;;;;;;476783;249;28529;-70
2021/06/07 02:48:58;;;;;;;76.40;40.40;;;14.50;99.90;;;;;;476791;249;29477;-71
2021/06/07 02:51:00;;;;;;;44.07;29.70;;;14.50;99.90;;;;;;476810;249;29139;-71
2021/06/07 02:53:01;;;;;;;51.50;31.70;;;14.50;99.90;;;;;;476785;249;28952;-71
2021/06/07 02:55:02;;;;;;;45.63;27.47;;;14.50;99.90;;;;;;476799;249;28642;-71
2021/06/07 02:57:03;;;;;;;43.60;28.67;;;14.50;99.90;;;;;;476786;249;28529;-70
2021/06/07 02:59:05;;;;;;;46.43;30.47;;;14.60;99.90;;;;;;476778;249;28602;-70
2021/06/07 03:01:06;;;;;;;41.53;27.47;;;14.50;99.90;;;;;;476749;249;28682;-71
2021/06/07 03:03:07;;;;;;;45.00;27.57;;;14.60;99.90;;;;;;476765;249;29524;-71
2021/06/07 03:05:08;;;;;;;58.90;32.33;;;14.60;99.90;;;;;;476778;249;29432;-72
2021/06/07 03:07:10;;;;;;;40.80;26.67;;;14.50;99.90;;;;;;476789;246;28619;-71
2021/06/07 03:09:11;;;;;;;55.93;33.67;;;14.50;99.90;;;;;;476809;249;29022;-71
2021/06/07 03:11:12;;;;;;;43.20;27.73;;;14.50;99.90;;;;;;476788;249;28958;-71
2021/06/07 03:13:13;;;;;;;73.57;38.27;;;14.50;99.90;;;;;;476780;249;28476;-70
2021/06/07 03:15:15;;;;;;;52.53;32.43;;;14.40;99.90;;;;;;476787;249;28600;-72
2021/06/07 03:17:16;;;;;;;52.60;31.43;;;14.40;99.90;;;;;;476779;249;29164;-70
2021/06/07 03:19:17;;;;;;;44.87;31.27;;;14.40;99.90;;;;;;476814;249;29456;-71
2021/06/07 03:21:19;;;;;;;44.03;29.40;;;14.40;99.90;;;;;;476822;249;28962;-71
2021/06/07 03:23:20;;;;;;;45.23;29.80;;;14.40;99.90;;;;;;476812;249;28910;-73
2021/06/07 03:25:21;;;;;;;41.33;28.20;;;14.40;99.90;;;;;;476844;249;28600;-71
2021/06/07 03:27:22;;;;;;;39.40;28.00;;;14.40;99.90;;;;;;476840;249;28648;-72
2021/06/07 03:29:24;;;;;;;45.00;29.13;;;14.40;99.90;;;;;;476846;249;28918;-70
2021/06/07 03:31:25;;;;;;;51.10;31.53;;;14.50;99.90;;;;;;476815;249;29179;-71
2021/06/07 03:33:26;;;;;;;59.40;35.37;;;14.40;99.90;;;;;;476799;249;28949;-70
2021/06/07 03:35:27;;;;;;;49.60;31.83;;;14.40;99.90;;;;;;476822;249;28435;-71
2021/06/07 03:37:29;;;;;;;42.20;27.77;;;14.30;99.90;;;;;;476796;249;28613;-70
2021/06/07 03:39:30;;;;;;;50.00;31.97;;;14.40;99.90;;;;;;476798;249;28455;-70
2021/06/07 03:41:31;;;;;;;42.33;27.40;;;14.40;99.90;;;;;;476808;249;28427;-70
2021/06/07 03:43:32;;;;;;;42.73;28.43;;;14.40;99.90;;;;;;476787;249;28589;-70
2021/06/07 03:45:34;;;;;;;54.67;33.10;;;14.40;99.90;;;;;;476798;249;29197;-70
2021/06/07 03:47:35;;;;;;;43.70;29.97;;;14.50;99.90;;;;;;476772;245;29485;-70
2021/06/07 03:49:36;;;;;;;49.83;30.60;;;14.50;99.90;;;;;;476816;249;28658;-70
2021/06/07 03:51:37;;;;;;;46.00;29.50;;;14.40;99.90;;;;;;476819;249;28553;-71
2021/06/07 03:53:39;;;;;;;46.80;31.13;;;14.40;99.90;;;;;;476816;249;28321;-70
2021/06/07 03:55:40;;;;;;;40.37;26.73;;;14.40;99.90;;;;;;476796;249;28406;-71
2021/06/07 03:57:41;;;;;;;44.80;28.50;;;14.50;99.90;;;;;;476794;249;28641;-72
2021/06/07 03:59:42;;;;;;;49.83;31.30;;;14.40;99.90;;;;;;476797;249;29432;-71
2021/06/07 04:01:44;;;;;;;49.20;30.90;;;14.50;99.90;;;;;;476805;249;29094;-71
2021/06/07 04:03:45;;;;;;;42.17;27.67;;;14.50;99.90;;;;;;476780;245;28961;-70
2021/06/07 04:05:46;;;;;;;41.67;28.27;;;14.50;99.90;;;;;;476805;249;28694;-71
2021/06/07 04:07:47;;;;;;;46.47;28.90;;;14.50;99.90;;;;;;476794;249;28508;-70
2021/06/07 04:09:49;;;;;;;45.90;28.37;;;14.50;99.90;;;;;;476774;249;28681;-70
2021/06/07 04:11:50;;;;;;;50.23;32.60;;;14.50;99.90;;;;;;476806;249;28623;-70
2021/06/07 04:13:51;;;;;;;45.13;28.00;;;14.50;99.90;;;;;;476779;249;29563;-71
2021/06/07 04:15:52;;;;;;;41.33;28.17;;;14.60;99.90;;;;;;476761;249;29509;-71
2021/06/07 04:17:54;;;;;;;47.10;31.63;;;14.60;99.90;;;;;;476807;249;28509;-70
2021/06/07 04:19:55;;;;;;;61.57;37.10;;;14.50;99.90;;;;;;476795;249;28696;-71
2021/06/07 04:21:56;;;;;;;43.83;28.87;;;14.60;99.90;;;;;;476800;245;28522;-71
2021/06/07 04:23:58;;;;;;;44.73;30.93;;;14.50;99.90;;;;;;476778;249;28914;-70
2021/06/07 04:25:59;;;;;;;44.20;27.93;;;14.60;99.90;;;;;;476800;249;28521;-71
2021/06/07 04:28:00;;;;;;;41.50;27.93;;;14.60;99.90;;;;;;476781;249;29489;-70
2021/06/07 04:30:05;;;;;;;45.37;29.67;;;14.70;99.90;;;;;;476771;249;29127;-71
2021/06/07 04:32:03;;;;;;;40.37;27.10;;;14.60;99.90;;;;;;476513;249;28928;-71
2021/06/07 04:34:04;;;;;;;37.63;25.40;;;14.60;99.90;;;;;;476782;249;28672;-71
2021/06/07 04:36:05;;;;;;;39.70;26.87;;;14.60;99.90;;;;;;476790;249;28940;-72
2021/06/07 04:38:06;;;;;;;39.40;26.90;;;14.70;99.90;;;;;;476410;249;28529;-71
2021/06/07 04:40:08;;;;;;;43.93;29.73;;;14.70;99.90;;;;;;476732;249;28574;-71
2021/06/07 04:42:09;;;;;;;37.63;25.80;;;14.60;99.90;;;;;;476838;249;29449;-71
2021/06/07 04:44:10;;;;;;;36.47;25.20;;;14.60;99.90;;;;;;476838;249;29323;-71
2021/06/07 04:46:11;;;;;;;38.87;25.63;;;14.70;99.90;;;;;;476737;249;28932;-71
2021/06/07 04:48:13;;;;;;;39.17;25.73;;;14.60;99.90;;;;;;476814;249;28925;-70
2021/06/07 04:50:14;;;;;;;39.53;26.80;;;14.70;99.90;;;;;;476814;249;28902;-72
2021/06/07 04:52:15;;;;;;;38.43;25.53;;;14.70;99.90;;;;;;476764;249;28922;-73
2021/06/07 04:54:16;;;;;;;39.80;26.87;;;14.70;99.90;;;;;;476810;249;28484;-70
2021/06/07 04:56:18;;;;;;;35.30;22.73;;;14.70;99.90;;;;;;476749;249;29478;-70
2021/06/07 04:58:19;;;;;;;34.93;23.70;;;14.70;99.90;;;;;;476776;249;30163;-70
2021/06/07 05:00:20;;;;;;;34.60;23.27;;;14.80;99.90;;;;;;476794;249;28464;-70
2021/06/07 05:02:21;;;;;;;36.80;23.23;;;14.80;99.90;;;;;;476743;249;28942;-72
2021/06/07 05:04:23;;;;;;;33.00;22.30;;;14.80;99.90;;;;;;476804;249;28905;-70
2021/06/07 05:06:24;;;;;;;33.50;22.80;;;14.80;99.90;;;;;;476798;249;28958;-71
2021/06/07 05:08:25;;;;;;;42.00;24.80;;;14.90;99.90;;;;;;476742;249;28936;-72
2021/06/07 05:10:26;;;;;;;41.23;27.43;;;14.80;99.90;;;;;;476784;249;29404;-71
2021/06/07 05:12:28;;;;;;;34.20;23.97;;;14.80;99.90;;;;;;476805;249;29019;-71
2021/06/07 05:14:29;;;;;;;38.73;26.23;;;14.80;99.90;;;;;;477892;246;28999;-70
2021/06/07 05:16:30;;;;;;;52.10;31.17;;;14.80;99.90;;;;;;482460;246;28996;-73
2021/06/07 05:18:33;;;;;;;32.33;23.17;;;14.80;99.90;;;;;;482677;246;28885;-70
2021/06/07 05:20:33;;;;;;;36.90;22.97;;;14.80;99.90;;;;;;482468;246;28927;-70
2021/06/07 05:22:34;;;;;;;33.67;22.57;;;14.90;99.90;;;;;;482765;246;28907;-70
2021/06/07 05:24:35;;;;;;;35.23;23.20;;;14.90;99.90;;;;;;482942;246;29397;-70
2021/06/07 05:26:36;;;;;;;29.67;20.77;;;15.00;99.90;;;;;;482887;246;29392;-71
2021/06/07 05:28:38;;;;;;;31.43;23.07;;;15.00;99.90;;;;;;482723;246;28864;-70
2021/06/07 05:30:39;;;;;;;28.10;20.70;;;14.90;99.90;;;;;;482715;246;28864;-71
2021/06/07 05:32:40;;;;;;;35.23;21.67;;;14.90;99.90;;;;;;482967;246;28984;-71
2021/06/07 05:34:42;;;;;;;32.60;22.73;;;14.90;99.90;;;;;;482732;246;28624;-70
2021/06/07 05:36:43;;;;;;;36.90;25.20;;;14.90;99.90;;;;;;482933;246;28681;-71
2021/06/07 05:38:44;;;;;;;30.87;22.07;;;14.80;99.90;;;;;;482944;246;30315;-71
2021/06/07 05:40:45;;;;;;;29.47;20.23;;;14.90;99.90;;;;;;482961;246;29226;-71
2021/06/07 05:42:47;;;;;;;28.10;20.27;;;14.90;99.90;;;;;;482979;246;28803;-73
2021/06/07 05:44:48;;;;;;;27.10;19.73;;;14.90;99.90;;;;;;482956;246;28838;-70
2021/06/07 05:46:50;;;;;;;37.70;24.70;;;15.00;99.90;;;;;;482960;246;28897;-72
2021/06/07 05:48:50;;;;;;;27.40;19.00;;;15.00;99.90;;;;;;482894;246;28767;-71
2021/06/07 05:50:52;;;;;;;32.27;23.07;;;15.00;99.90;;;;;;482936;246;28813;-71
2021/06/07 05:52:53;;;;;;;40.47;25.57;;;15.00;99.90;;;;;;482949;246;29260;-74
2021/06/07 05:54:54;;;;;;;37.03;24.87;;;15.00;99.90;;;;;;482993;246;29282;-72
2021/06/07 05:56:55;;;;;;;29.40;21.00;;;14.90;99.90;;;;;;482981;246;29051;-71
2021/06/07 05:58:57;;;;;;;31.83;22.60;;;14.90;99.90;;;;;;482973;246;28937;-71
2021/06/07 06:00:58;;;;;;;30.70;20.50;;;15.00;99.90;;;;;;482931;246;28795;-70
2021/06/07 06:02:59;;;;;;;35.90;23.70;;;15.00;99.90;;;;;;482941;246;28783;-72
2021/06/07 06:05:00;;;;;;;28.00;20.10;;;15.10;99.90;;;;;;479336;246;36366;-71
2021/06/07 06:07:02;;;;;;;32.00;21.87;;;15.10;99.90;;;;;;482977;246;27911;-70
2021/06/07 06:09:03;;;;;;;28.30;20.23;;;15.00;99.90;;;;;;482932;246;29295;-72
2021/06/07 06:11:04;;;;;;;35.07;21.67;;;15.00;99.90;;;;;;482942;246;28818;-72
2021/06/07 06:13:05;;;;;;;29.97;21.20;;;15.00;99.90;;;;;;482979;246;28566;-72
2021/06/07 06:15:07;;;;;;;23.50;17.13;;;15.00;99.90;;;;;;482969;246;28840;-70
2021/06/07 06:17:08;;;;;;;34.50;22.37;;;15.10;99.90;;;;;;482924;246;28904;-71
2021/06/07 06:19:10;;;;;;;23.97;17.57;;;15.10;99.90;;;;;;481430;246;28859;-71
2021/06/07 06:21:10;;;;;;;32.50;21.37;;;15.10;99.90;;;;;;480449;246;29382;-71
2021/06/07 06:23:12;;;;;;;30.13;20.70;;;15.00;99.90;;;;;;483133;246;30231;-72
2021/06/07 06:25:13;;;;;;;32.37;21.20;;;15.00;99.90;;;;;;481360;245;28832;-73
2021/06/07 06:27:14;;;;;;;26.97;19.60;;;15.10;99.90;;;;;;476549;249;28945;-72
2021/06/07 06:29:15;;;;;;;26.20;17.80;;;15.10;99.90;;;;;;476723;249;28891;-71
2021/06/07 06:31:17;;;;;;;26.90;19.60;;;15.20;99.90;;;;;;476808;249;28945;-72
2021/06/07 06:33:18;;;;;;;27.33;19.90;;;15.40;99.90;;;;;;476806;249;29412;-73
2021/06/07 06:35:19;;;;;;;28.97;18.57;;;15.20;99.90;;;;;;476758;249;29389;-71
2021/06/07 06:37:21;;;;;;;26.60;18.93;;;15.30;99.90;;;;;;476769;249;29400;-73
2021/06/07 06:39:22;;;;;;;30.10;20.33;;;15.30;99.90;;;;;;476775;249;28926;-72
2021/06/07 06:41:23;;;;;;;22.70;16.60;;;15.40;99.90;;;;;;476739;249;28981;-70
2021/06/07 06:43:24;;;;;;;24.53;17.90;;;15.50;99.90;;;;;;476767;249;28953;-73
2021/06/07 06:45:26;;;;;;;23.30;16.90;;;15.60;99.90;;;;;;476764;249;28893;-72
2021/06/07 06:47:27;;;;;;;20.67;15.67;;;15.70;99.90;;;;;;476784;249;28929;-73
2021/06/07 06:49:28;;;;;;;25.13;15.63;;;15.60;99.90;;;;;;476793;249;29382;-70
2021/06/07 06:51:29;;;;;;;19.63;15.33;;;15.70;99.90;;;;;;476757;249;29442;-71
2021/06/07 06:53:31;;;;;;;17.87;13.87;;;15.90;99.90;;;;;;476784;249;29571;-71
2021/06/07 06:55:32;;;;;;;21.80;16.03;;;16.00;99.90;;;;;;476806;249;29056;-70
2021/06/07 06:57:33;;;;;;;16.40;13.00;;;15.90;99.90;;;;;;476732;249;29011;-71
2021/06/07 06:59:34;;;;;;;16.70;12.90;;;16.00;99.90;;;;;;476798;249;28896;-70
2021/06/07 07:01:36;;;;;;;17.73;12.47;;;16.10;99.90;;;;;;476808;249;28934;-71
2021/06/07 07:03:38;;;;;;;16.60;12.20;;;16.10;99.90;;;;;;476704;249;29669;-71
2021/06/07 07:05:38;;;;;;;16.07;13.67;;;15.90;99.90;;;;;;476761;249;29363;-73
2021/06/07 07:07:39;;;;;;;14.57;12.60;;;15.90;99.90;;;;;;476787;249;28926;-73
2021/06/07 07:09:43;;;;;;;18.73;13.33;;;15.80;99.90;;;;;;476749;249;28912;-73
2021/06/07 07:11:42;;;;;;;14.37;11.20;;;15.90;99.90;;;;;;476687;249;28947;-70
2021/06/07 07:13:43;;;;;;;17.63;12.87;;;15.70;99.90;;;;;;476812;249;29292;-70
2021/06/07 07:15:44;;;;;;;14.73;11.57;;;15.70;99.90;;;;;;476818;249;28905;-71
2021/06/07 07:17:46;;;;;;;17.63;13.33;;;15.60;99.90;;;;;;476822;249;29403;-71
2021/06/07 07:19:48;;;;;;;21.10;13.10;;;15.50;99.90;;;;;;476799;249;29362;-71
2021/06/07 07:21:48;;;;;;;18.17;12.93;;;15.50;99.90;;;;;;476772;249;28951;-73
2021/06/07 07:23:49;;;;;;;17.37;13.33;;;15.50;99.90;;;;;;476748;249;29007;-72
2021/06/07 07:25:51;;;;;;;16.77;12.43;;;15.60;99.90;;;;;;476753;249;28886;-72
2021/06/07 07:27:52;;;;;;;16.53;12.93;;;15.50;99.90;;;;;;476798;249;29009;-73
2021/06/07 07:29:54;;;;;;;15.30;11.70;;;15.50;99.90;;;;;;476785;249;28916;-73
2021/06/07 07:31:56;;;;;;;14.10;11.50;;;15.60;99.90;;;;;;476663;249;29465;-72
2021/06/07 07:33:56;;;;;;;12.70;10.70;;;15.60;99.90;;;;;;476684;249;29561;-70
2021/06/07 07:35:57;;;;;;;12.77;10.70;;;15.60;99.90;;;;;;476809;249;28938;-70
2021/06/07 07:37:58;;;;;;;11.33;9.40;;;15.70;99.90;;;;;;476745;249;28986;-71
2021/06/07 07:40:00;;;;;;;12.23;10.50;;;15.70;99.90;;;;;;476782;249;28998;-72
2021/06/07 07:42:01;;;;;;;12.27;10.33;;;15.70;99.90;;;;;;476817;249;28958;-70
2021/06/07 07:44:02;;;;;;;15.33;11.03;;;15.70;99.90;;;;;;476683;249;28962;-73
2021/06/07 07:46:03;;;;;;;13.43;10.50;;;15.60;99.90;;;;;;476782;249;29343;-72
2021/06/07 07:48:05;;;;;;;10.80;9.30;;;15.60;99.90;;;;;;476765;249;29464;-70
2021/06/07 07:50:06;;;;;;;13.03;10.33;;;15.60;99.90;;;;;;476758;249;28923;-71
2021/06/07 07:52:07;;;;;;;12.37;10.10;;;15.60;99.90;;;;;;476790;249;28966;-71
2021/06/07 07:54:08;;;;;;;12.87;9.70;;;15.60;99.90;;;;;;476751;249;29034;-70
2021/06/07 07:56:10;;;;;;;10.73;9.33;;;15.50;99.90;;;;;;476802;249;29063;-70
2021/06/07 07:58:11;;;;;;;10.20;8.53;;;15.40;99.90;;;;;;476809;249;28968;-71
2021/06/07 08:00:12;;;;;;;12.40;9.70;;;15.50;99.90;;;;;;476716;249;29027;-70
2021/06/07 08:02:13;;;;;;;15.10;10.57;;;15.50;99.90;;;;;;476810;249;29425;-70
2021/06/07 08:04:15;;;;;;;13.53;9.67;;;15.50;99.90;;;;;;476810;249;30122;-70
2021/06/07 08:06:16;;;;;;;10.33;8.03;;;15.50;99.90;;;;;;476705;249;29350;-70
2021/06/07 08:08:17;;;;;;;12.93;9.30;;;15.50;99.90;;;;;;476778;249;28947;-71
2021/06/07 08:10:18;;;;;;;10.40;9.30;;;15.60;99.90;;;;;;476729;249;29001;-71
2021/06/07 08:12:20;;;;;;;9.93;8.43;;;15.60;99.90;;;;;;476729;249;28953;-73
2021/06/07 08:14:21;;;;;;;10.80;9.10;;;15.60;99.90;;;;;;476782;249;28904;-71
2021/06/07 08:16:22;;;;;;;10.90;9.77;;;15.60;99.90;;;;;;476725;249;29034;-71
2021/06/07 08:18:23;;;;;;;9.33;7.90;;;15.70;99.90;;;;;;476792;249;28952;-71
2021/06/07 08:20:25;;;;;;;10.13;8.50;;;15.70;99.90;;;;;;476823;249;28912;-71
2021/06/07 08:22:26;;;;;;;9.43;8.00;;;15.70;99.90;;;;;;476751;249;29496;-71
2021/06/07 08:24:27;;;;;;;7.73;6.93;;;15.80;99.90;;;;;;476817;249;29362;-71
2021/06/07 08:26:28;;;;;;;9.50;8.20;;;15.90;99.90;;;;;;476803;249;29389;-71
2021/06/07 08:28:30;;;;;;;9.97;8.37;;;15.90;99.90;;;;;;476793;249;28936;-72
2021/06/07 08:30:32;;;;;;;8.70;7.20;;;15.80;99.90;;;;;;476844;249;29001;-70
2021/06/07 08:32:32;;;;;;;10.77;7.30;;;15.80;99.90;;;;;;476738;249;29014;-71
2021/06/07 08:34:33;;;;;;;6.77;5.77;;;15.80;99.90;;;;;;476752;249;28988;-70
2021/06/07 08:36:35;;;;;;;5.57;4.70;;;15.90;99.90;;;;;;476579;245;28965;-71
2021/06/07 08:38:36;;;;;;;6.87;6.17;;;15.90;99.90;;;;;;476821;249;28979;-73
2021/06/07 08:40:38;;;;;;;8.03;7.23;;;15.90;99.90;;;;;;476742;249;28905;-72
2021/06/07 08:42:41;;;;;;;7.57;6.33;;;15.80;99.90;;;;;;476671;249;29448;-73
2021/06/07 08:44:40;;;;;;;11.87;6.77;;;15.80;99.90;;;;;;476606;249;29360;-72
2021/06/07 08:46:41;;;;;;;8.00;6.60;;;15.70;99.90;;;;;;476746;249;29407;-72
2021/06/07 08:48:43;;;;;;;7.47;6.67;;;15.70;99.90;;;;;;476836;249;29455;-74
2021/06/07 08:50:43;;;;;;;6.60;5.97;;;15.80;99.90;;;;;;476694;249;29055;-72
2021/06/07 08:52:45;;;;;;;6.33;5.77;;;15.90;99.90;;;;;;476805;249;28942;-73
2021/06/07 08:54:46;;;;;;;7.57;6.77;;;15.80;99.90;;;;;;476760;249;28926;-71
2021/06/07 08:56:47;;;;;;;6.97;6.27;;;15.80;99.90;;;;;;476756;249;28946;-71
2021/06/07 08:58:48;;;;;;;7.57;5.83;;;15.70;99.90;;;;;;476410;249;29428;-72
2021/06/07 09:00:50;;;;;;;10.07;5.40;;;15.60;99.90;;;;;;476497;249;29025;-73
2021/06/07 09:02:51;;;;;;;7.30;6.00;;;15.70;99.90;;;;;;476430;249;28954;-74
2021/06/07 09:04:52;;;;;;;6.57;5.93;;;15.60;99.90;;;;;;476745;249;29034;-73
2021/06/07 09:06:53;;;;;;;6.60;5.73;;;15.60;99.90;;;;;;476810;249;29431;-72
2021/06/07 09:08:55;;;;;;;8.00;5.73;;;15.50;99.90;;;;;;476808;249;29511;-73
2021/06/07 09:10:56;;;;;;;7.07;5.90;;;15.60;99.90;;;;;;476821;249;29542;-70
2021/06/07 09:12:58;;;;;;;6.30;5.70;;;15.60;99.90;;;;;;476834;249;28926;-70
2021/06/07 09:14:58;;;;;;;5.97;5.37;;;15.50;99.90;;;;;;476810;249;28895;-69
2021/06/07 09:17:00;;;;;;;7.80;7.00;;;15.50;99.90;;;;;;476644;245;28928;-73
2021/06/07 09:19:01;;;;;;;7.77;6.30;;;15.40;99.90;;;;;;476800;249;28943;-72
2021/06/07 09:21:02;;;;;;;6.43;5.83;;;15.60;99.90;;;;;;476794;249;28934;-72
2021/06/07 09:23:05;;;;;;;8.30;7.47;;;15.70;99.90;;;;;;476746;245;28946;-73
2021/06/07 09:25:05;;;;;;;6.57;5.97;;;15.50;99.90;;;;;;476661;249;28964;-72
2021/06/07 09:27:06;;;;;;;7.93;7.03;;;15.50;99.90;;;;;;476797;249;28941;-72
2021/06/07 09:29:07;;;;;;;6.60;5.97;;;15.60;99.90;;;;;;476749;249;28912;-72
2021/06/07 09:31:10;;;;;;;6.20;5.60;;;15.70;99.90;;;;;;476804;249;29366;-72
2021/06/07 09:33:10;;;;;;;7.63;6.87;;;15.70;99.90;;;;;;476756;249;29404;-73
2021/06/07 09:35:11;;;;;;;7.40;6.70;;;15.60;99.90;;;;;;476732;249;29428;-73
2021/06/07 09:37:12;;;;;;;7.60;6.23;;;15.50;99.90;;;;;;476800;249;28958;-73
2021/06/07 09:39:14;;;;;;;6.27;4.87;;;15.60;99.90;;;;;;476717;249;28912;-73
2021/06/07 09:41:15;;;;;;;6.57;5.43;;;15.70;99.90;;;;;;476688;249;28909;-71
2021/06/07 09:43:16;;;;;;;6.50;5.90;;;15.90;99.90;;;;;;476744;249;28925;-74
2021/06/07 09:45:17;;;;;;;7.00;6.03;;;15.80;99.90;;;;;;476678;249;28994;-73
2021/06/07 09:47:19;;;;;;;5.63;4.67;;;15.70;99.90;;;;;;476769;245;28942;-71
2021/06/07 09:49:20;;;;;;;7.70;5.77;;;15.90;99.90;;;;;;476783;249;28911;-71
2021/06/07 09:51:21;;;;;;;6.73;5.93;;;15.80;99.90;;;;;;476705;245;28939;-71
2021/06/07 09:53:22;;;;;;;5.70;5.13;;;15.90;99.90;;;;;;476774;249;28937;-71
2021/06/07 09:55:24;;;;;;;7.27;6.67;;;15.80;99.90;;;;;;476745;249;29018;-71
2021/06/07 09:57:25;;;;;;;6.97;6.10;;;15.80;99.90;;;;;;476743;249;29011;-72
2021/06/07 09:59:26;;;;;;;5.90;5.33;;;15.80;99.90;;;;;;476779;249;28898;-71
2021/06/07 10:01:33;;;;;;;6.23;5.63;;;15.90;99.90;;;;;;476786;249;28961;-73
2021/06/07 10:03:29;;;;;;;6.20;5.30;;;15.90;99.90;;;;;;476350;249;28929;-72
2021/06/07 10:05:30;;;;;;;6.40;5.67;;;16.00;99.90;;;;;;476783;245;28906;-71
2021/06/07 10:07:31;;;;;;;5.30;4.90;;;16.00;99.90;;;;;;476734;249;29051;-72
2021/06/07 10:09:32;;;;;;;6.10;5.37;;;16.10;99.90;;;;;;476766;249;29403;-73
2021/06/07 10:11:35;;;;;;;7.60;6.57;;;16.10;99.90;;;;;;476789;249;29511;-71
2021/06/07 10:13:35;;;;;;;5.63;5.13;;;15.80;99.90;;;;;;476624;249;29482;-73
2021/06/07 10:15:36;;;;;;;6.07;5.47;;;15.90;99.90;;;;;;476799;249;28982;-72
2021/06/07 10:17:37;;;;;;;7.23;4.90;;;16.00;99.90;;;;;;476801;249;28938;-71